Time;durP1;ratioP1;P1;durP2;ratioP2;P2;SDS_P1;SDS_P2;PMS_P1;PMS_P2;Temp;Humidity;BMP_temperature;BMP_pressure;BME280_temperature;BME280_humidity;BME280_pressure;Samples;Min_cycle;Max_cycle;Signal;HPM_P1;HPM_P2
2022/01/04 00:00:05;;;;;;;3.70;1.63;;;;;;;10.59;86.24;99395.31;4953672;28;20892;-79
2022/01/04 00:02:31;;;;;;;2.80;1.40;;;;;;;10.60;86.22;99392.34;4952250;29;20397;-79
2022/01/04 00:04:56;;;;;;;1.30;1.20;;;;;;;10.59;86.17;99390.69;4952482;29;20882;-79
2022/01/04 00:07:22;;;;;;;3.33;1.37;;;;;;;10.55;86.83;99381.47;4940856;29;20422;-79
2022/01/04 00:09:49;;;;;;;2.13;1.10;;;;;;;10.64;86.18;99387.16;4930235;29;20409;-79
2022/01/04 00:14:59;;;;;;;1.47;0.97;;;;;;;10.55;86.64;99376.06;4953924;29;20448;-79
2022/01/04 00:17:24;;;;;;;1.80;1.00;;;;;;;10.60;86.37;99380.69;4935837;29;20414;-80
2022/01/04 00:19:50;;;;;;;2.77;1.37;;;;;;;10.67;85.98;99365.75;4951408;29;20409;-78
2022/01/04 00:22:15;;;;;;;3.30;1.07;;;;;;;10.67;86.22;99362.25;4952149;29;20426;-79
2022/01/04 00:24:40;;;;;;;3.67;1.30;;;;;;;10.51;86.88;99353.31;4917351;29;20416;-79
2022/01/04 00:27:06;;;;;;;1.80;1.00;;;;;;;10.54;86.96;99351.97;4944071;29;20401;-79
2022/01/04 00:29:31;;;;;;;2.83;1.17;;;;;;;10.64;86.52;99343.81;4952976;28;20414;-79
2022/01/04 00:31:56;;;;;;;3.40;1.33;;;;;;;10.59;86.97;99333.00;4936150;29;20448;-79
2022/01/04 00:34:22;;;;;;;1.57;1.17;;;;;;;10.62;86.75;99324.31;4950399;29;20782;-79
2022/01/04 00:36:47;;;;;;;1.53;1.30;;;;;;;10.57;86.74;99327.81;4952726;28;20768;-79
2022/01/04 00:39:12;;;;;;;2.50;1.10;;;;;;;10.54;87.01;99320.25;4952717;28;20413;-79
2022/01/04 00:41:38;;;;;;;1.13;1.13;;;;;;;10.59;86.83;99317.56;4950226;29;20425;-79
2022/01/04 00:44:04;;;;;;;1.85;1.38;;;;;;;10.62;86.39;99314.28;4953203;29;20497;-79
2022/01/04 00:46:29;;;;;;;1.35;0.95;;;;;;;10.64;86.31;99301.28;4932965;29;20471;-79
2022/01/04 00:49:10;;;;;;;2.33;1.00;;;;;;;10.62;86.22;99292.63;4930283;29;20439;-79
2022/01/04 00:51:40;;;;;;;3.17;0.90;;;;;;;10.65;85.81;99286.66;4949155;29;20441;-79
2022/01/04 00:54:06;;;;;;;2.08;0.90;;;;;;;10.60;86.02;99273.13;4935477;29;20421;-79
2022/01/04 00:56:31;;;;;;;1.43;1.10;;;;;;;10.64;86.21;99274.19;4935274;29;20758;-79
2022/01/04 00:58:57;;;;;;;1.10;0.90;;;;;;;10.62;86.18;99270.13;4952425;29;20401;-80
2022/01/04 01:01:22;;;;;;;5.28;1.30;;;;;;;10.58;86.70;99267.16;4950847;28;20457;-79
2022/01/04 01:03:48;;;;;;;2.22;0.98;;;;;;;10.64;86.44;99262.53;4952545;29;20409;-79
2022/01/04 01:06:14;;;;;;;3.00;1.00;;;;;;;10.64;86.24;99246.28;4950664;29;20821;-79
2022/01/04 01:08:40;;;;;;;1.03;1.03;;;;;;;10.64;86.28;99248.97;4952256;29;20422;-79
2022/01/04 01:11:07;;;;;;;3.45;1.23;;;;;;;10.64;86.46;99244.38;4953746;28;20398;-79
2022/01/04 01:13:33;;;;;;;2.38;1.70;;;;;;;10.61;86.72;99241.41;4934246;29;20756;-79
2022/01/04 01:15:58;;;;;;;2.10;1.00;;;;;;;10.43;87.44;99220.34;4946022;28;20406;-80
2022/01/04 01:18:23;;;;;;;3.20;1.00;;;;;;;10.43;87.73;99212.22;4954827;28;20402;-79
2022/01/04 01:20:50;;;;;;;2.87;1.03;;;;;;;10.43;87.66;99210.31;4953094;29;20858;-79
2022/01/04 01:23:16;;;;;;;1.90;1.10;;;;;;;10.35;87.93;99210.84;4955523;29;20397;-78
2022/01/04 01:25:41;;;;;;;2.10;1.10;;;;;;;10.41;87.81;99205.16;4955411;29;20400;-79
2022/01/04 01:28:07;;;;;;;2.25;1.30;;;;;;;10.36;87.88;99199.75;4955137;29;20465;-79
2022/01/04 01:30:36;;;;;;;2.60;1.10;;;;;;;10.36;88.04;99178.09;4948829;29;20402;-79
2022/01/04 01:33:01;;;;;;;2.85;1.08;;;;;;;10.47;87.53;99176.19;4954786;28;20417;-79
2022/01/04 01:35:27;;;;;;;2.42;1.25;;;;;;;10.43;87.48;99175.09;4936170;29;20413;-79
2022/01/04 01:37:52;;;;;;;2.33;1.00;;;;;;;10.47;87.42;99156.41;4955164;29;20766;-79
2022/01/04 01:40:18;;;;;;;1.97;1.20;;;;;;;10.42;87.64;99170.75;4935469;29;20430;-79
2022/01/04 01:42:43;;;;;;;5.00;1.63;;;;;;;10.43;87.49;99164.28;4951938;28;20429;-79
2022/01/04 01:45:11;;;;;;;3.60;1.10;;;;;;;10.43;87.40;99166.97;4954103;29;20754;-79
2022/01/04 01:47:38;;;;;;;1.10;1.10;;;;;;;10.46;87.37;99162.91;4954882;29;20889;-79
2022/01/04 01:50:04;;;;;;;1.85;1.15;;;;;;;10.39;87.48;99155.88;4954923;29;20886;-79
2022/01/04 01:52:30;;;;;;;1.38;1.20;;;;;;;10.38;87.66;99148.84;4954941;29;20425;-79
2022/01/04 01:54:55;;;;;;;1.60;1.10;;;;;;;10.47;87.11;99140.97;4895811;29;1722080;-80
2022/01/04 01:57:22;;;;;;;4.47;1.70;;;;;;;10.43;87.42;99139.09;4954782;29;20781;-79
2022/01/04 01:59:47;;;;;;;1.55;1.30;;;;;;;10.44;87.36;99140.72;4955267;28;20421;-79
2022/01/04 02:02:13;;;;;;;1.40;1.13;;;;;;;10.52;86.82;99121.97;4954851;28;20406;-80
2022/01/04 02:04:38;;;;;;;1.98;1.02;;;;;;;10.44;87.19;99109.00;4954797;28;20402;-79
2022/01/04 02:07:04;;;;;;;2.23;1.10;;;;;;;10.43;87.30;99110.09;4953967;29;20418;-80
2022/01/04 02:09:30;;;;;;;5.60;2.10;;;;;;;10.48;87.29;99104.66;4955830;29;20398;-80
2022/01/04 02:11:55;;;;;;;1.85;1.20;;;;;;;10.44;87.34;99092.75;4954545;29;20445;-79
2022/01/04 02:14:21;;;;;;;3.55;1.05;;;;;;;10.46;87.27;99081.66;4942814;29;20411;-79
2022/01/04 02:16:46;;;;;;;1.10;1.03;;;;;;;10.48;87.19;99077.56;4955454;28;20417;-79
2022/01/04 02:19:11;;;;;;;2.40;1.47;;;;;;;10.52;87.10;99075.13;4955597;29;20909;-79
2022/01/04 02:21:37;;;;;;;2.40;1.33;;;;;;;10.45;87.18;99067.28;4952727;28;20782;-79
2022/01/04 02:24:03;;;;;;;1.40;1.30;;;;;;;10.52;86.85;99056.16;4939674;29;20913;-79
2022/01/04 02:26:30;;;;;;;2.90;1.25;;;;;;;10.50;86.84;99056.47;4955464;29;20398;-78
2022/01/04 02:28:56;;;;;;;1.60;1.50;;;;;;;10.45;86.92;99053.75;4955397;29;20829;-79
2022/01/04 02:31:21;;;;;;;3.20;2.40;;;;;;;10.54;86.88;99043.94;4954647;28;20413;-79
2022/01/04 02:33:47;;;;;;;1.50;1.40;;;;;;;10.52;86.55;99042.63;4955510;29;20402;-79
2022/01/04 02:36:12;;;;;;;2.00;1.50;;;;;;;10.48;86.89;99038.84;4953109;29;20422;-79
2022/01/04 02:38:37;;;;;;;1.93;1.50;;;;;;;10.46;87.05;99043.72;4938134;29;20578;-79
2022/01/04 02:41:03;;;;;;;2.83;1.27;;;;;;;10.43;87.13;99041.59;4954518;28;20574;-78
2022/01/04 02:43:28;;;;;;;2.00;1.13;;;;;;;10.45;86.98;99036.69;4954909;29;20405;-78
2022/01/04 02:45:54;;;;;;;3.03;1.35;;;;;;;10.39;87.24;99036.72;4937851;29;20477;-79
2022/01/04 02:48:19;;;;;;;3.70;1.10;;;;;;;10.38;87.54;99037.00;4954941;29;20422;-79
2022/01/04 02:50:44;;;;;;;1.58;1.45;;;;;;;10.33;87.97;99037.03;4935182;29;20449;-79
2022/01/04 02:53:09;;;;;;;1.77;1.30;;;;;;;10.33;87.97;99027.00;4954895;29;20413;-78
2022/01/04 02:55:35;;;;;;;3.58;1.45;;;;;;;10.38;87.68;99026.16;4954160;28;20426;-79
2022/01/04 02:58:03;;;;;;;5.83;1.57;;;;;;;10.37;88.18;99016.44;4953577;29;20508;-79
2022/01/04 03:00:28;;;;;;;1.93;1.67;;;;;;;10.29;88.18;99006.97;4954940;29;20402;-79
2022/01/04 03:02:54;;;;;;;2.00;1.50;;;;;;;10.30;88.52;99007.81;4937536;29;20976;-79
2022/01/04 03:05:19;;;;;;;1.80;1.30;;;;;;;10.23;89.00;99002.69;4954469;28;20493;-79
2022/01/04 03:07:45;;;;;;;1.67;1.30;;;;;;;10.29;89.17;99009.69;4952203;29;20422;-78
2022/01/04 03:10:10;;;;;;;2.87;1.43;;;;;;;10.23;89.05;98997.28;4954515;29;20406;-78
2022/01/04 03:12:39;;;;;;;4.47;1.90;;;;;;;10.30;89.22;98999.69;4954662;29;20815;-78
2022/01/04 03:15:05;;;;;;;1.85;1.27;;;;;;;10.23;89.30;98991.03;4954553;29;20417;-79
2022/01/04 03:17:30;;;;;;;3.20;1.42;;;;;;;10.22;89.52;98984.00;4940523;29;20402;-79
2022/01/04 03:19:55;;;;;;;2.60;1.50;;;;;;;10.27;89.69;98968.53;4951703;28;20422;-78
2022/01/04 03:22:21;;;;;;;2.90;2.00;;;;;;;10.31;89.34;98966.06;4953647;29;20920;-78
2022/01/04 03:24:46;;;;;;;2.17;1.47;;;;;;;10.31;89.37;98966.88;4937212;29;20394;-78
2022/01/04 03:27:12;;;;;;;1.97;1.43;;;;;;;10.26;89.73;98958.00;4954113;29;20406;-78
2022/01/04 03:29:38;;;;;;;2.25;1.50;;;;;;;10.31;89.55;98953.34;4937040;29;20445;-78
2022/01/04 03:32:03;;;;;;;3.33;1.73;;;;;;;10.34;89.33;98938.47;4953731;28;20516;-78
2022/01/04 03:34:29;;;;;;;2.60;1.73;;;;;;;10.40;89.08;98937.34;4951801;28;20410;-78
2022/01/04 03:36:54;;;;;;;4.93;1.60;;;;;;;10.37;89.46;98930.56;4936923;29;20762;-78
2022/01/04 03:39:19;;;;;;;5.30;1.90;;;;;;;10.36;89.69;98933.56;4954290;29;20398;-78
2022/01/04 03:41:46;;;;;;;2.90;1.60;;;;;;;10.36;89.59;98920.84;4954086;29;20890;-80
2022/01/04 03:44:20;;;;;;;4.85;1.70;;;;;;;10.25;90.23;98923.88;4953727;29;20402;-78
2022/01/04 03:46:48;;;;;;;6.57;1.80;;;;;;;10.29;90.28;98917.63;4936347;29;20460;-78
2022/01/04 03:49:13;;;;;;;1.67;1.57;;;;;;;10.26;90.17;98920.91;4952740;28;20905;-78
2022/01/04 03:51:38;;;;;;;4.07;1.60;;;;;;;10.26;90.39;98910.06;4953423;28;20409;-78
2022/01/04 03:54:04;;;;;;;4.83;1.63;;;;;;;10.25;90.61;98905.75;4953656;29;20949;-78
2022/01/04 03:56:29;;;;;;;1.50;1.50;;;;;;;10.22;90.94;98897.38;4953806;29;20402;-78
2022/01/04 03:58:55;;;;;;;2.67;1.30;;;;;;;10.20;91.08;98891.44;4953868;29;20398;-78
2022/01/04 04:01:20;;;;;;;1.40;1.30;;;;;;;10.18;91.18;98880.06;4953664;29;20406;-78
2022/01/04 04:03:45;;;;;;;3.77;1.40;;;;;;;10.18;91.34;98880.88;4943178;29;20397;-78
2022/01/04 04:06:11;;;;;;;1.50;1.10;;;;;;;10.21;91.09;98869.47;4951135;28;20453;-78
2022/01/04 04:08:36;;;;;;;2.80;1.40;;;;;;;10.29;91.21;98866.19;4953722;29;20480;-79
2022/01/04 04:11:02;;;;;;;3.10;1.10;;;;;;;10.28;90.84;98867.28;4947883;29;20406;-78
2022/01/04 04:13:27;;;;;;;1.48;1.10;;;;;;;10.25;91.13;98857.00;4953695;29;20405;-78
2022/01/04 04:15:53;;;;;;;2.22;1.17;;;;;;;10.24;91.09;98852.66;4953229;28;20427;-78
2022/01/04 04:18:18;;;;;;;3.23;1.63;;;;;;;10.26;91.12;98855.94;4953406;29;20414;-79
2022/01/04 04:20:45;;;;;;;1.77;1.23;;;;;;;10.25;91.43;98843.47;4950426;28;20761;-80
2022/01/04 04:23:11;;;;;;;1.65;1.55;;;;;;;10.25;91.46;98842.66;4953664;29;20845;-78
2022/01/04 04:25:37;;;;;;;2.20;1.60;;;;;;;10.26;91.71;98844.28;4953439;29;20909;-79
2022/01/04 04:28:02;;;;;;;2.25;1.50;;;;;;;10.26;91.88;98838.88;4953544;29;20472;-78
2022/01/04 04:30:28;;;;;;;1.45;1.35;;;;;;;10.25;91.90;98831.81;4953463;29;20949;-78
2022/01/04 04:32:53;;;;;;;2.97;1.13;;;;;;;10.25;91.95;98821.81;4950850;29;20774;-78
2022/01/04 04:35:19;;;;;;;3.30;1.30;;;;;;;10.25;92.12;98827.22;4952379;28;20410;-78
2022/01/04 04:37:44;;;;;;;2.28;1.20;;;;;;;10.24;92.18;98820.19;4935888;29;20405;-77
2022/01/04 04:40:10;;;;;;;1.33;1.30;;;;;;;10.25;92.40;98813.69;4950096;29;20414;-78
2022/01/04 04:42:36;;;;;;;1.75;1.17;;;;;;;10.23;92.47;98815.06;4951802;28;20979;-78
2022/01/04 04:45:03;;;;;;;1.35;1.10;;;;;;;10.26;92.25;98806.38;4949596;28;20413;-79
2022/01/04 04:47:29;;;;;;;2.90;1.80;;;;;;;10.25;92.37;98792.03;4951600;28;20912;-78
2022/01/04 04:49:54;;;;;;;3.72;2.72;;;;;;;10.31;92.38;98798.19;4939068;29;20409;-80
2022/01/04 04:52:19;;;;;;;1.80;1.70;;;;;;;10.24;92.49;98800.44;4956509;29;20806;-78
2022/01/04 04:54:45;;;;;;;4.50;1.97;;;;;;;10.27;92.98;98791.75;4939521;29;20416;-78
2022/01/04 04:57:11;;;;;;;2.75;1.75;;;;;;;10.24;93.15;98785.00;4935613;29;20739;-78
2022/01/04 04:59:37;;;;;;;2.15;1.90;;;;;;;10.30;93.17;98780.38;4954784;28;20406;-78
2022/01/04 05:02:02;;;;;;;3.03;1.60;;;;;;;10.26;92.96;98773.91;4956056;28;20410;-78
2022/01/04 05:04:28;;;;;;;3.33;1.60;;;;;;;10.25;93.36;98761.44;4956663;29;20406;-78
2022/01/04 05:06:53;;;;;;;2.40;1.67;;;;;;;10.29;93.25;98762.50;4956312;29;20390;-78
2022/01/04 05:09:19;;;;;;;3.00;1.43;;;;;;;10.25;93.44;98748.72;4956201;29;20430;-80
2022/01/04 05:11:44;;;;;;;4.20;1.50;;;;;;;10.30;93.44;98745.97;4956971;29;20402;-79
2022/01/04 05:14:10;;;;;;;1.50;1.20;;;;;;;10.30;93.31;98737.84;4955790;29;20429;-78
2022/01/04 05:16:35;;;;;;;2.43;2.00;;;;;;;10.29;93.53;98730.00;4956129;28;20455;-79
2022/01/04 05:19:00;;;;;;;2.93;1.40;;;;;;;10.30;93.33;98732.44;4955837;28;20413;-78
2022/01/04 05:21:25;;;;;;;1.37;1.27;;;;;;;10.29;93.59;98728.09;4956707;29;20410;-79
2022/01/04 05:23:52;;;;;;;1.47;1.30;;;;;;;10.29;93.82;98720.00;4956604;29;20397;-78
2022/01/04 05:26:18;;;;;;;1.40;1.08;;;;;;;10.29;93.58;98711.88;4938239;29;20421;-79
2022/01/04 05:28:45;;;;;;;1.60;1.27;;;;;;;10.30;93.66;98709.97;4956494;29;20425;-78
2022/01/04 05:31:11;;;;;;;2.40;1.38;;;;;;;10.29;93.90;98697.50;4941304;29;20400;-78
2022/01/04 05:33:36;;;;;;;1.23;1.02;;;;;;;10.31;93.83;98700.72;4959396;28;20400;-78
2022/01/04 05:36:02;;;;;;;1.07;1.03;;;;;;;10.33;93.32;98702.09;4969612;28;20495;-78
2022/01/04 05:38:27;;;;;;;2.70;1.27;;;;;;;10.31;93.48;98695.31;4974631;28;20412;-78
2022/01/04 05:40:52;;;;;;;1.38;1.23;;;;;;;10.36;93.59;98700.69;4975741;28;20425;-79
2022/01/04 05:43:18;;;;;;;1.80;1.30;;;;;;;10.32;93.98;98686.94;4975465;28;20431;-78
2022/01/04 05:45:43;;;;;;;1.55;1.27;;;;;;;10.37;93.60;98689.56;4975546;28;20864;-79
2022/01/04 05:48:08;;;;;;;1.23;1.13;;;;;;;10.36;93.70;98679.03;4975404;28;20420;-79
2022/01/04 05:50:34;;;;;;;3.25;1.15;;;;;;;10.33;93.83;98672.31;4974773;28;20415;-78
2022/01/04 05:53:00;;;;;;;1.92;0.90;;;;;;;10.35;93.89;98674.72;4974011;28;20819;-78
2022/01/04 05:55:25;;;;;;;1.40;1.30;;;;;;;10.36;94.19;98670.91;4975075;28;20443;-79
2022/01/04 05:57:50;;;;;;;2.13;1.30;;;;;;;10.39;94.25;98657.59;4974895;28;20416;-77
2022/01/04 06:00:16;;;;;;;1.60;1.20;;;;;;;10.37;94.34;98651.66;4975344;28;20864;-78
2022/01/04 06:02:41;;;;;;;1.20;1.10;;;;;;;10.39;94.26;98651.38;4974509;28;20404;-78
2022/01/04 06:05:08;;;;;;;1.17;1.13;;;;;;;10.45;94.46;98644.81;4975159;28;20772;-78
2022/01/04 06:07:34;;;;;;;1.30;1.20;;;;;;;10.48;94.21;98640.72;4970826;28;20507;-78
2022/01/04 06:09:59;;;;;;;1.50;1.25;;;;;;;10.50;94.13;98633.13;4975160;28;20487;-78
2022/01/04 06:15:07;;;;;;;2.17;1.50;;;;;;;10.52;94.31;98630.94;4969445;28;20420;-78
2022/01/04 06:17:35;;;;;;;1.67;1.42;;;;;;;10.48;94.21;98630.69;4972150;28;20404;-78
2022/01/04 06:20:04;;;;;;;1.63;1.48;;;;;;;10.50;94.39;98623.09;4972316;28;20401;-79
2022/01/04 06:22:30;;;;;;;5.45;1.60;;;;;;;10.49;94.55;98616.06;4968849;28;20452;-79
2022/01/04 06:24:56;;;;;;;2.60;1.40;;;;;;;10.52;94.74;98614.69;4968771;28;20946;-78
2022/01/04 06:27:22;;;;;;;4.50;1.70;;;;;;;10.53;94.45;98614.41;4974329;28;20467;-78
2022/01/04 06:29:48;;;;;;;1.60;1.50;;;;;;;10.53;94.69;98608.19;4974566;28;20408;-79
2022/01/04 06:32:14;;;;;;;2.63;1.73;;;;;;;10.56;94.84;98605.69;4974227;28;20759;-78
2022/01/04 06:34:40;;;;;;;7.47;2.85;;;;;;;10.62;94.57;98599.13;4972979;28;20400;-79
2022/01/04 06:37:07;;;;;;;2.83;1.60;;;;;;;10.65;94.21;98595.81;4971712;28;21145;-78
2022/01/04 06:39:32;;;;;;;2.00;1.55;;;;;;;10.68;94.05;98597.94;4956019;28;20778;-78
2022/01/04 06:41:58;;;;;;;2.30;1.80;;;;;;;10.69;94.16;98590.63;4956892;28;20412;-78
2022/01/04 06:44:23;;;;;;;2.10;1.30;;;;;;;10.70;94.20;98590.31;4973883;28;20434;-78
2022/01/04 06:46:49;;;;;;;1.17;1.07;;;;;;;10.68;94.38;98591.72;4972727;28;20400;-79
2022/01/04 06:49:16;;;;;;;4.60;1.30;;;;;;;10.72;94.48;98582.72;4973218;28;20427;-78
2022/01/04 06:51:42;;;;;;;2.58;1.10;;;;;;;10.71;94.42;98580.31;4968961;28;20408;-79
2022/01/04 06:54:09;;;;;;;1.30;1.00;;;;;;;10.74;94.53;98571.59;4955612;28;20779;-78
2022/01/04 06:56:35;;;;;;;2.25;1.20;;;;;;;10.77;94.46;98558.25;4971184;28;20415;-78
2022/01/04 06:59:00;;;;;;;9.90;1.80;;;;;;;10.76;94.73;98559.38;4973498;28;20412;-78
2022/01/04 07:01:26;;;;;;;1.50;1.00;;;;;;;10.77;94.78;98555.56;4973420;28;20892;-78
2022/01/04 07:03:53;;;;;;;3.03;1.50;;;;;;;10.81;94.80;98550.38;4974605;28;20431;-78
2022/01/04 07:06:18;;;;;;;1.30;1.20;;;;;;;10.80;94.72;98562.31;4973393;28;20415;-78
2022/01/04 07:08:44;;;;;;;1.10;1.10;;;;;;;10.82;94.66;98562.81;4967589;28;20429;-78
2022/01/04 07:11:09;;;;;;;1.65;1.20;;;;;;;10.83;94.68;98548.19;4970864;28;20416;-78
2022/01/04 07:13:34;;;;;;;2.10;1.60;;;;;;;10.83;94.71;98543.53;4973975;28;20418;-79
2022/01/04 07:16:00;;;;;;;2.08;1.83;;;;;;;10.83;95.05;98548.19;4973421;28;20408;-79
2022/01/04 07:18:25;;;;;;;1.73;1.30;;;;;;;10.84;95.04;98539.75;4973928;28;20487;-80
2022/01/04 07:20:50;;;;;;;1.75;1.65;;;;;;;10.89;94.80;98533.47;4972487;28;20408;-79
2022/01/04 07:23:15;;;;;;;1.30;1.20;;;;;;;10.88;94.71;98542.69;4973413;28;20487;-77
2022/01/04 07:25:41;;;;;;;2.60;1.50;;;;;;;10.90;95.02;98532.34;4973753;28;20408;-78
2022/01/04 07:28:06;;;;;;;2.67;1.27;;;;;;;10.89;94.80;98526.13;4973197;28;20416;-78
2022/01/04 07:30:31;;;;;;;3.60;1.30;;;;;;;10.93;94.74;98534.50;4973092;28;20404;-79
2022/01/04 07:32:57;;;;;;;1.33;1.23;;;;;;;10.94;94.94;98528.75;4967128;28;20434;-78
2022/01/04 07:35:22;;;;;;;1.97;1.00;;;;;;;10.96;94.88;98528.47;4972633;28;20412;-78
2022/01/04 07:37:47;;;;;;;1.57;1.17;;;;;;;10.98;94.71;98537.09;4972577;28;20419;-78
2022/01/04 07:40:13;;;;;;;1.47;1.07;;;;;;;11.01;94.92;98535.72;4963274;28;20398;-78
2022/01/04 07:42:39;;;;;;;2.87;1.20;;;;;;;11.01;94.76;98541.94;4965187;28;20811;-78
2022/01/04 07:45:05;;;;;;;2.30;1.10;;;;;;;10.99;94.81;98544.16;4970855;28;20569;-79
2022/01/04 07:47:30;;;;;;;3.67;1.60;;;;;;;11.00;94.82;98548.44;4972099;28;20408;-78
2022/01/04 07:49:55;;;;;;;3.93;1.50;;;;;;;11.01;95.08;98535.72;4972190;28;20408;-79
2022/01/04 07:52:21;;;;;;;1.50;1.40;;;;;;;11.03;94.83;98530.81;4973141;28;20412;-78
2022/01/04 07:54:46;;;;;;;1.20;1.10;;;;;;;11.01;94.97;98533.00;4972564;28;20420;-78
2022/01/04 07:57:12;;;;;;;2.77;1.17;;;;;;;11.01;95.11;98530.28;4949472;28;20419;-78
2022/01/04 07:59:38;;;;;;;1.25;0.98;;;;;;;11.03;95.25;98533.53;4948226;28;20412;-78
2022/01/04 08:02:03;;;;;;;3.73;1.60;;;;;;;11.06;95.03;98528.31;4971378;28;20421;-79
2022/01/04 08:04:28;;;;;;;4.40;1.83;;;;;;;11.02;95.07;98527.31;4968767;28;20396;-79
2022/01/04 08:06:54;;;;;;;3.73;1.27;;;;;;;11.02;95.13;98530.00;4973083;28;20938;-78
2022/01/04 08:09:19;;;;;;;1.13;1.13;;;;;;;11.03;95.19;98523.47;4955534;28;20423;-79
2022/01/04 08:11:44;;;;;;;2.35;1.35;;;;;;;11.07;95.07;98527.22;4973297;28;20431;-79
2022/01/04 08:14:10;;;;;;;3.97;1.80;;;;;;;11.06;95.14;98520.19;4971996;28;20900;-79
2022/01/04 08:16:35;;;;;;;2.58;1.35;;;;;;;11.08;95.03;98515.28;4965395;28;20423;-81
2022/01/04 08:19:00;;;;;;;3.77;1.70;;;;;;;11.10;94.95;98512.28;4970595;28;20551;-81
2022/01/04 08:21:26;;;;;;;3.25;1.90;;;;;;;11.08;95.13;98517.16;4972805;28;20405;-79
2022/01/04 08:23:52;;;;;;;2.97;2.10;;;;;;;11.10;94.94;98506.84;4966425;28;20418;-78
2022/01/04 08:26:18;;;;;;;1.58;1.30;;;;;;;11.11;94.88;98503.03;4956319;28;20411;-79
2022/01/04 08:28:44;;;;;;;3.65;1.15;;;;;;;11.12;94.97;98486.47;4965255;28;20903;-78
2022/01/04 08:31:11;;;;;;;3.90;1.50;;;;;;;11.14;94.88;98478.03;4972582;28;20436;-78
2022/01/04 08:33:36;;;;;;;1.83;1.30;;;;;;;11.16;94.76;98479.38;4959840;28;20488;-78
2022/01/04 08:36:01;;;;;;;1.73;1.63;;;;;;;11.17;94.71;98472.81;4966609;28;20413;-78
2022/01/04 08:38:27;;;;;;;1.50;1.10;;;;;;;11.17;94.54;98470.13;4960515;28;20783;-78
2022/01/04 08:40:52;;;;;;;2.20;1.63;;;;;;;11.19;94.53;98470.66;4957883;28;20460;-78
2022/01/04 08:43:19;;;;;;;1.50;1.03;;;;;;;11.19;94.42;98462.50;4955594;28;20405;-78
2022/01/04 08:45:44;;;;;;;2.08;1.90;;;;;;;11.17;94.33;98461.97;4970632;28;20423;-78
2022/01/04 08:48:10;;;;;;;2.50;1.40;;;;;;;11.17;94.47;98472.03;4972265;28;20879;-78
2022/01/04 08:50:35;;;;;;;4.27;2.37;;;;;;;11.15;94.43;98472.34;4963219;28;20416;-78
2022/01/04 08:53:01;;;;;;;6.83;2.23;;;;;;;11.12;94.77;98470.22;4965741;28;20412;-78
2022/01/04 08:55:26;;;;;;;2.30;2.03;;;;;;;11.14;94.79;98469.91;4953097;28;20418;-78
2022/01/04 08:57:52;;;;;;;2.00;1.80;;;;;;;11.17;94.90;98453.84;4972658;28;20408;-77
2022/01/04 09:00:18;;;;;;;2.10;1.70;;;;;;;11.17;94.63;98461.19;4953459;28;20416;-78
2022/01/04 09:02:43;;;;;;;4.60;2.30;;;;;;;11.15;95.08;98447.13;4972466;28;20473;-78
2022/01/04 09:05:10;;;;;;;10.63;1.50;;;;;;;11.18;95.09;98449.25;4971792;28;20500;-78
2022/01/04 09:07:35;;;;;;;2.70;1.35;;;;;;;11.20;94.92;98441.59;4970437;28;20419;-79
2022/01/04 09:10:02;;;;;;;2.10;1.10;;;;;;;11.20;94.84;98447.03;4972400;28;20396;-78
2022/01/04 09:12:39;;;;;;;3.13;1.52;;;;;;;11.20;94.94;98431.56;4955029;28;20806;-78
2022/01/04 09:15:27;;;;;;;4.25;2.10;;;;;;;11.21;94.85;98446.75;4972258;28;20399;-79
2022/01/04 09:20:34;;;;;;;2.03;1.58;;;;;;;11.26;94.92;98440.44;4961289;28;20420;-78
2022/01/04 09:23:00;;;;;;;2.53;2.33;;;;;;;11.21;95.23;98443.22;4959031;28;20420;-78
2022/01/04 09:25:25;;;;;;;4.75;2.30;;;;;;;11.20;95.28;98447.84;4966924;28;20672;-78
2022/01/04 09:27:51;;;;;;;3.33;1.70;;;;;;;11.18;95.39;98441.91;4965279;28;20424;-78
2022/01/04 09:30:16;;;;;;;2.10;1.55;;;;;;;11.21;95.45;98444.03;4962689;28;20781;-78
2022/01/04 09:32:42;;;;;;;4.37;2.20;;;;;;;11.19;95.43;98440.00;4956124;28;20415;-77
2022/01/04 09:35:08;;;;;;;2.65;2.00;;;;;;;11.19;95.66;98443.53;4964529;28;20427;-78
2022/01/04 09:37:34;;;;;;;5.15;3.50;;;;;;;11.19;95.46;98448.94;4973810;28;20404;-77
2022/01/04 09:39:59;;;;;;;3.83;2.33;;;;;;;11.21;95.65;98449.44;4966771;28;20471;-78
2022/01/04 09:42:24;;;;;;;4.70;2.40;;;;;;;11.22;95.43;98442.13;4956054;28;20702;-78
2022/01/04 09:44:50;;;;;;;3.93;1.80;;;;;;;11.23;95.57;98446.47;4975127;28;20399;-79
2022/01/04 09:47:15;;;;;;;2.10;1.90;;;;;;;11.20;95.68;98447.03;4954369;28;20410;-78
2022/01/04 09:49:41;;;;;;;4.90;2.70;;;;;;;11.24;95.61;98453.47;4973629;28;20823;-78
2022/01/04 09:52:09;;;;;;;3.20;1.67;;;;;;;11.19;95.80;98438.09;4942316;28;20463;-78
2022/01/04 09:54:37;;;;;;;3.20;1.67;;;;;;;11.20;95.75;98438.88;4973059;28;20753;-79
2022/01/04 09:57:02;;;;;;;2.75;1.80;;;;;;;11.21;95.90;98422.34;4969414;28;20875;-79
2022/01/04 09:59:28;;;;;;;3.40;1.63;;;;;;;11.23;95.70;98422.84;4958005;28;20487;-80
2022/01/04 10:02:00;;;;;;;5.50;2.17;;;;;;;11.24;95.57;98438.00;4953876;28;20419;-78
2022/01/04 10:04:25;;;;;;;5.45;1.80;;;;;;;11.28;95.45;98427.38;4966149;28;20511;-78
2022/01/04 10:06:59;;;;;;;3.93;1.40;;;;;;;11.27;95.54;98433.88;4965385;28;20780;-79
2022/01/04 10:09:45;;;;;;;2.25;1.20;;;;;;;11.30;95.34;98438.72;4959084;28;20429;-79
2022/01/04 10:12:19;;;;;;;1.48;1.20;;;;;;;11.27;95.26;98425.75;4960009;28;20774;-79
2022/01/04 10:14:49;;;;;;;2.47;1.15;;;;;;;11.30;95.01;98423.25;4952340;28;20771;-79
2022/01/04 10:17:30;;;;;;;2.88;1.45;;;;;;;11.30;95.10;98425.16;4963472;28;20416;-79
2022/01/04 10:20:02;;;;;;;4.00;1.58;;;;;;;11.28;95.18;98414.63;4963548;28;20400;-78
2022/01/04 10:22:34;;;;;;;2.75;1.40;;;;;;;11.28;95.41;98406.50;4967650;28;20415;-79
2022/01/04 10:25:03;;;;;;;2.60;1.40;;;;;;;11.26;95.37;98405.97;4964228;28;20422;-79
2022/01/04 10:27:31;;;;;;;3.90;1.80;;;;;;;11.25;95.47;98406.28;4970578;28;20419;-79
2022/01/04 10:30:24;;;;;;;4.82;1.38;;;;;;;11.25;95.43;98406.28;4967510;28;20424;-79
2022/01/04 10:32:56;;;;;;;3.75;2.00;;;;;;;11.26;95.67;98413.31;4963901;28;20408;-78
2022/01/04 10:35:23;;;;;;;3.40;1.92;;;;;;;11.23;95.69;98414.69;4960937;28;20408;-79
2022/01/04 10:37:48;;;;;;;1.85;1.65;;;;;;;11.24;95.66;98399.25;4966339;28;20443;-79
2022/01/04 10:40:13;;;;;;;4.30;1.77;;;;;;;11.28;95.82;98405.69;4960787;28;20444;-78
2022/01/04 10:42:39;;;;;;;2.70;1.87;;;;;;;11.25;95.72;98409.00;4961856;28;20882;-78
2022/01/04 10:45:26;;;;;;;1.63;1.43;;;;;;;11.31;95.72;98405.88;4962579;28;20422;-79
2022/01/04 10:47:52;;;;;;;3.75;1.40;;;;;;;11.28;95.73;98411.91;4959395;28;20510;-78
2022/01/04 10:50:34;;;;;;;4.55;2.00;;;;;;;11.28;96.01;98417.34;4963205;28;20507;-79
2022/01/04 10:53:01;;;;;;;2.00;1.83;;;;;;;11.29;95.79;98413.53;4946345;28;20444;-81
2022/01/04 10:55:32;;;;;;;2.17;1.58;;;;;;;11.27;96.00;98417.63;4962344;28;20427;-79
2022/01/04 10:57:57;;;;;;;2.25;1.92;;;;;;;11.29;95.90;98420.84;4955794;28;20967;-79
2022/01/04 11:00:23;;;;;;;4.05;1.60;;;;;;;11.28;95.99;98425.47;4964672;28;20410;-79
2022/01/04 11:02:48;;;;;;;6.45;2.25;;;;;;;11.31;95.87;98419.44;4961252;28;20499;-79
2022/01/04 11:05:17;;;;;;;3.63;2.00;;;;;;;11.31;96.01;98415.94;4959705;28;20752;-79
2022/01/04 11:08:00;;;;;;;2.53;1.90;;;;;;;11.33;95.99;98427.28;4960480;28;20408;-78
2022/01/04 11:10:28;;;;;;;3.60;2.17;;;;;;;11.36;95.86;98407.72;4962258;28;20426;-78
2022/01/04 11:12:55;;;;;;;3.63;2.17;;;;;;;11.37;95.77;98412.81;4963533;28;20423;-78
2022/01/04 11:15:21;;;;;;;2.47;2.25;;;;;;;11.38;95.75;98413.63;4970296;28;20498;-78
2022/01/04 11:17:47;;;;;;;1.88;1.77;;;;;;;11.39;95.78;98409.81;4971436;28;20848;-78
2022/01/04 11:20:12;;;;;;;2.22;2.13;;;;;;;11.42;95.84;98401.09;4973080;28;20428;-78
2022/01/04 11:22:40;;;;;;;2.80;1.95;;;;;;;11.42;95.46;98396.47;4973559;28;20456;-79
2022/01/04 11:25:07;;;;;;;3.08;2.22;;;;;;;11.44;95.64;98396.97;4972741;28;20703;-77
2022/01/04 11:27:36;;;;;;;2.75;1.98;;;;;;;11.45;95.65;98393.16;4961712;28;20427;-78
2022/01/04 11:30:14;;;;;;;2.07;1.90;;;;;;;11.49;95.36;98387.13;4965800;28;20544;-77
2022/01/04 11:32:43;;;;;;;4.05;2.22;;;;;;;11.50;94.99;98388.72;4964577;28;20543;-77
2022/01/04 11:35:16;;;;;;;3.08;2.33;;;;;;;11.52;94.79;98392.75;4964322;28;20509;-78
2022/01/04 11:37:53;;;;;;;2.50;2.30;;;;;;;11.53;94.64;98391.63;4960759;28;20779;-79